No particular awareness of the weather is required.    There are no Weather-warnings


Meteo18 Weather Cam more information Meteo18 Weather Cam


Thunder radar more information blitzortung!


Rain radar more information rain snow radar


Visit our other weather sites:

Template documentation
and downloads

And another site



Weather Underground History page Text

Daily Summary for October 4, 2016 Units:  Metric    English   Both
« Previous Day
Next Day »
Daily Weekly Monthly Yearly Custom
  High: Low: Average:
Temperature: 19.2 °C 8.1 °C 13.1 °C
Dew Point: 10.3 °C 6.7 °C 8.4 °C
Humidity: 92 % 53 % 75 %
Wind Speed: 25.7 km/h 1.6 km/h 9.5 km/h
Wind Gust: 29.0 km/h - -
Wind:- - NE
Pressure: 1025.6 hPa 1022.9 hPa -
Precipitation: 0.0 mm    
Historical Graphs
 
 
Tabular Data for October 4, 2016
Time Temperature Dew Point Pressure Wind Wind Speed Wind Gust Humidity Rainfall Rate (Hourly)
00:02 10.4 °C 7.1 °C 1025.3 hPa ENE 11.3 km/h 20.9 km/h 80 % 0.0 mm
00:07 10.3 °C 7.2 °C 1025.3 hPa NE 17.7 km/h 20.9 km/h 81 % 0.0 mm
00:12 10.3 °C 7.2 °C 1025.3 hPa NNE 8.0 km/h 20.9 km/h 81 % 0.0 mm
00:17 10.3 °C 7.2 °C 1025.3 hPa NE 4.8 km/h 19.3 km/h 81 % 0.0 mm
00:22 10.3 °C 7.2 °C 1025.3 hPa NE 8.0 km/h 19.3 km/h 81 % 0.0 mm
00:32 10.2 °C 7.1 °C 1025.3 hPa NE 6.4 km/h 17.7 km/h 81 % 0.0 mm
00:47 10.2 °C 7.1 °C 1025.3 hPa NE 8.0 km/h 20.9 km/h 81 % 0.0 mm
00:52 10.1 °C 7.0 °C 1025.3 hPa NNE 6.4 km/h 20.9 km/h 81 % 0.0 mm
00:57 10.0 °C 7.1 °C 1025.3 hPa NE 8.0 km/h 19.3 km/h 82 % 0.0 mm
01:02 10.0 °C 7.1 °C 1025.3 hPa NE 4.8 km/h 19.3 km/h 82 % 0.0 mm
01:07 9.9 °C 7.0 °C 1025.6 hPa NNE 4.8 km/h 17.7 km/h 82 % 0.0 mm
01:12 9.9 °C 7.0 °C 1025.6 hPa NNE 9.7 km/h 16.1 km/h 82 % 0.0 mm
01:17 10.0 °C 7.1 °C 1025.3 hPa NNE 9.7 km/h 16.1 km/h 82 % 0.0 mm
01:22 10.0 °C 7.1 °C 1025.3 hPa NE 14.5 km/h 16.1 km/h 82 % 0.0 mm
01:27 10.1 °C 7.2 °C 1025.3 hPa ENE 11.3 km/h 16.1 km/h 82 % 0.0 mm
01:32 10.1 °C 7.2 °C 1025.3 hPa NNE 11.3 km/h 19.3 km/h 82 % 0.0 mm
01:37 10.1 °C 7.2 °C 1025.3 hPa NE 12.9 km/h 19.3 km/h 82 % 0.0 mm
01:42 10.1 °C 7.2 °C 1025.3 hPa NNE 12.9 km/h 19.3 km/h 82 % 0.0 mm
01:47 10.1 °C 7.2 °C 1025.6 hPa NE 12.9 km/h 17.7 km/h 82 % 0.0 mm
01:52 10.1 °C 7.2 °C 1025.6 hPa NNE 9.7 km/h 19.3 km/h 82 % 0.0 mm
01:57 10.0 °C 7.1 °C 1025.6 hPa NE 11.3 km/h 19.3 km/h 82 % 0.0 mm
02:02 9.9 °C 7.0 °C 1025.3 hPa NE 8.0 km/h 19.3 km/h 82 % 0.0 mm
02:07 9.8 °C 7.1 °C 1025.3 hPa NNE 6.4 km/h 16.1 km/h 83 % 0.0 mm
02:12 9.8 °C 7.1 °C 1025.3 hPa ENE 8.0 km/h 16.1 km/h 83 % 0.0 mm
02:17 9.7 °C 7.0 °C 1025.6 hPa NE 9.7 km/h 14.5 km/h 83 % 0.0 mm
02:22 9.7 °C 7.0 °C 1025.6 hPa NE 9.7 km/h 16.1 km/h 83 % 0.0 mm
02:27 9.6 °C 7.0 °C 1025.6 hPa NE 9.7 km/h 16.1 km/h 84 % 0.0 mm
02:32 9.6 °C 7.0 °C 1025.6 hPa NNE 3.2 km/h 14.5 km/h 84 % 0.0 mm
02:37 9.6 °C 7.0 °C 1025.3 hPa NNE 6.4 km/h 12.9 km/h 84 % 0.0 mm
02:42 9.6 °C 7.0 °C 1025.6 hPa NE 8.0 km/h 14.5 km/h 84 % 0.0 mm
02:47 9.7 °C 7.1 °C 1025.6 hPa East 9.7 km/h 14.5 km/h 84 % 0.0 mm
02:57 9.8 °C 7.1 °C 1025.6 hPa NNE 4.8 km/h 14.5 km/h 83 % 0.0 mm
03:02 9.8 °C 7.1 °C 1025.3 hPa NE 8.0 km/h 17.7 km/h 83 % 0.0 mm
03:12 9.7 °C 7.1 °C 1025.3 hPa NNE 12.9 km/h 17.7 km/h 84 % 0.0 mm
03:17 9.6 °C 7.0 °C 1025.3 hPa NE 8.0 km/h 19.3 km/h 84 % 0.0 mm
03:22 9.6 °C 7.0 °C 1025.3 hPa NNE 11.3 km/h 19.3 km/h 84 % 0.0 mm
03:27 9.6 °C 7.0 °C 1025.3 hPa ENE 16.1 km/h 19.3 km/h 84 % 0.0 mm
03:37 9.6 °C 7.0 °C 1025.3 hPa NNE 11.3 km/h 20.9 km/h 84 % 0.0 mm
03:42 9.4 °C 7.0 °C 1025.3 hPa NNE 9.7 km/h 20.9 km/h 85 % 0.0 mm
03:47 9.4 °C 7.0 °C 1025.3 hPa NE 12.9 km/h 19.3 km/h 85 % 0.0 mm
03:52 9.4 °C 7.0 °C 1025.3 hPa NNE 8.0 km/h 17.7 km/h 85 % 0.0 mm
03:57 9.3 °C 6.9 °C 1025.3 hPa NE 11.3 km/h 16.1 km/h 85 % 0.0 mm
04:02 9.3 °C 6.9 °C 1025.3 hPa NE 8.0 km/h 16.1 km/h 85 % 0.0 mm
04:12 9.3 °C 6.9 °C 1025.3 hPa ENE 6.4 km/h 12.9 km/h 85 % 0.0 mm
04:17 9.2 °C 7.0 °C 1025.3 hPa NE 4.8 km/h 12.9 km/h 86 % 0.0 mm
04:22 9.1 °C 6.9 °C 1025.3 hPa NNE 4.8 km/h 11.3 km/h 86 % 0.0 mm
04:27 9.1 °C 6.9 °C 1024.9 hPa NE 3.2 km/h 9.7 km/h 86 % 0.0 mm
04:32 9.1 °C 6.9 °C 1024.9 hPa NE 1.6 km/h 9.7 km/h 86 % 0.0 mm
04:37 8.9 °C 6.7 °C 1024.9 hPa NE 1.6 km/h 9.7 km/h 86 % 0.0 mm
04:42 8.9 °C 6.9 °C 1024.9 hPa NNE 4.8 km/h 8.0 km/h 87 % 0.0 mm
04:47 8.8 °C 6.8 °C 1024.9 hPa NE 1.6 km/h 8.0 km/h 87 % 0.0 mm
04:52 8.8 °C 6.8 °C 1024.9 hPa NNE 1.6 km/h 8.0 km/h 87 % 0.0 mm
04:57 8.7 °C 6.8 °C 1024.9 hPa NE 3.2 km/h 9.7 km/h 88 % 0.0 mm
05:02 8.8 °C 6.9 °C 1024.9 hPa ENE 3.2 km/h 9.7 km/h 88 % 0.0 mm
05:07 8.8 °C 6.9 °C 1024.9 hPa NE 6.4 km/h 9.7 km/h 88 % 0.0 mm
05:17 8.7 °C 6.8 °C 1024.9 hPa NE 4.8 km/h 9.7 km/h 88 % 0.0 mm
05:22 8.7 °C 6.8 °C 1024.9 hPa NNE 8.0 km/h 9.7 km/h 88 % 0.0 mm
05:27 8.7 °C 6.8 °C 1024.9 hPa NNE 6.4 km/h 12.9 km/h 88 % 0.0 mm
05:32 8.7 °C 6.8 °C 1024.9 hPa NE 9.7 km/h 12.9 km/h 88 % 0.0 mm
05:37 8.8 °C 6.9 °C 1024.9 hPa NNE 8.0 km/h 14.5 km/h 88 % 0.0 mm
05:42 8.8 °C 6.9 °C 1024.9 hPa NNE 8.0 km/h 17.7 km/h 88 % 0.0 mm
05:47 8.8 °C 6.9 °C 1024.6 hPa NNE 9.7 km/h 17.7 km/h 88 % 0.0 mm
05:52 8.9 °C 7.0 °C 1024.6 hPa NE 12.9 km/h 17.7 km/h 88 % 0.0 mm
05:57 9.0 °C 7.1 °C 1024.6 hPa NNE 16.1 km/h 17.7 km/h 88 % 0.0 mm
06:02 9.2 °C 7.3 °C 1024.6 hPa NE 8.0 km/h 17.7 km/h 88 % 0.0 mm
06:12 9.2 °C 7.3 °C 1024.9 hPa NE 9.7 km/h 20.9 km/h 88 % 0.0 mm
06:17 9.1 °C 7.2 °C 1024.9 hPa ENE 8.0 km/h 20.9 km/h 88 % 0.0 mm
06:22 9.1 °C 7.2 °C 1024.9 hPa NNE 16.1 km/h 20.9 km/h 88 % 0.0 mm
06:27 9.0 °C 7.1 °C 1024.9 hPa NE 11.3 km/h 16.1 km/h 88 % 0.0 mm
06:32 8.9 °C 7.0 °C 1024.9 hPa NE 9.7 km/h 16.1 km/h 88 % 0.0 mm
06:37 8.8 °C 7.1 °C 1024.9 hPa NE 3.2 km/h 16.1 km/h 89 % 0.0 mm
06:42 8.6 °C 6.9 °C 1024.9 hPa NNE 6.4 km/h 16.1 km/h 89 % 0.0 mm
06:47 8.5 °C 7.0 °C 1024.9 hPa NNE 8.0 km/h 12.9 km/h 90 % 0.0 mm
06:52 8.5 °C 7.0 °C 1024.9 hPa NE 3.2 km/h 12.9 km/h 90 % 0.0 mm
06:57 8.5 °C 7.0 °C 1024.9 hPa NE 6.4 km/h 11.3 km/h 90 % 0.0 mm
07:02 8.5 °C 7.0 °C 1024.9 hPa NE 6.4 km/h 11.3 km/h 90 % 0.0 mm
07:07 8.4 °C 6.9 °C 1024.9 hPa NE 8.0 km/h 11.3 km/h 90 % 0.0 mm
07:12 8.4 °C 6.9 °C 1024.9 hPa NE 6.4 km/h 12.9 km/h 90 % 0.0 mm
07:17 8.4 °C 7.0 °C 1024.9 hPa NNE 3.2 km/h 12.9 km/h 91 % 0.0 mm
07:22 8.4 °C 7.0 °C 1024.9 hPa NNE 1.6 km/h 12.9 km/h 91 % 0.0 mm
07:32 8.3 °C 6.9 °C 1024.9 hPa NNE 6.4 km/h 12.9 km/h 91 % 0.0 mm
07:37 8.2 °C 6.8 °C 1024.9 hPa NE 8.0 km/h 12.9 km/h 91 % 0.0 mm
07:42 8.2 °C 6.8 °C 1024.9 hPa NE 4.8 km/h 14.5 km/h 91 % 0.0 mm
07:47 8.1 °C 6.7 °C 1024.9 hPa NNE 3.2 km/h 14.5 km/h 91 % 0.0 mm
07:57 8.1 °C 6.9 °C 1024.9 hPa NNE 9.7 km/h 11.3 km/h 92 % 0.0 mm
08:02 8.1 °C 6.9 °C 1024.9 hPa NE 3.2 km/h 11.3 km/h 92 % 0.0 mm
08:07 8.2 °C 6.8 °C 1024.9 hPa NE 9.7 km/h 11.3 km/h 91 % 0.0 mm
08:12 8.2 °C 6.8 °C 1024.9 hPa NE 1.6 km/h 11.3 km/h 91 % 0.0 mm
08:17 8.3 °C 6.9 °C 1024.9 hPa NE 4.8 km/h 9.7 km/h 91 % 0.0 mm
08:27 8.5 °C 7.0 °C 1024.9 hPa NE 3.2 km/h 8.0 km/h 90 % 0.0 mm
08:32 8.5 °C 7.0 °C 1024.9 hPa NNW 4.8 km/h 8.0 km/h 90 % 0.0 mm
08:37 8.6 °C 7.1 °C 1024.9 hPa NE 3.2 km/h 9.7 km/h 90 % 0.0 mm
08:42 8.7 °C 7.2 °C 1024.9 hPa NE 11.3 km/h 14.5 km/h 90 % 0.0 mm
08:47 8.8 °C 7.2 °C 1024.9 hPa NE 12.9 km/h 16.1 km/h 90 % 0.0 mm
08:52 8.9 °C 7.3 °C 1024.9 hPa NE 6.4 km/h 16.1 km/h 90 % 0.0 mm
08:57 9.1 °C 7.5 °C 1024.9 hPa NNE 6.4 km/h 16.1 km/h 90 % 0.0 mm
09:02 9.2 °C 7.5 °C 1024.9 hPa NNE 4.8 km/h 14.5 km/h 89 % 0.0 mm
09:07 9.4 °C 7.7 °C 1024.9 hPa NNE 11.3 km/h 14.5 km/h 89 % 0.0 mm
09:12 9.5 °C 7.8 °C 1024.9 hPa NE 8.0 km/h 17.7 km/h 89 % 0.0 mm
09:17 9.7 °C 7.8 °C 1024.9 hPa NE 11.3 km/h 17.7 km/h 88 % 0.0 mm
09:27 9.8 °C 7.9 °C 1024.9 hPa NE 8.0 km/h 17.7 km/h 88 % 0.0 mm
09:32 9.9 °C 8.0 °C 1024.9 hPa NNE 11.3 km/h 17.7 km/h 88 % 0.0 mm
09:37 9.9 °C 7.8 °C 1024.9 hPa NNE 11.3 km/h 17.7 km/h 87 % 0.0 mm
09:42 10.1 °C 8.0 °C 1025.3 hPa NNE 9.7 km/h 20.9 km/h 87 % 0.0 mm
09:52 10.4 °C 8.3 °C 1025.3 hPa NE 6.4 km/h 20.9 km/h 87 % 0.0 mm
09:57 10.7 °C 8.5 °C 1024.9 hPa North 11.3 km/h 17.7 km/h 86 % 0.0 mm
10:07 11.1 °C 8.7 °C 1025.3 hPa NE 4.8 km/h 14.5 km/h 85 % 0.0 mm
10:12 11.3 °C 8.7 °C 1025.3 hPa NE 9.7 km/h 17.7 km/h 84 % 0.0 mm
10:17 11.5 °C 8.9 °C 1025.3 hPa NE 9.7 km/h 17.7 km/h 84 % 0.0 mm
10:22 11.6 °C 9.0 °C 1025.3 hPa ENE 8.0 km/h 17.7 km/h 84 % 0.0 mm
10:27 11.8 °C 9.0 °C 1025.3 hPa ENE 9.7 km/h 14.5 km/h 83 % 0.0 mm
10:32 11.9 °C 9.1 °C 1025.3 hPa NE 9.7 km/h 14.5 km/h 83 % 0.0 mm
10:37 12.1 °C 9.1 °C 1025.3 hPa NNE 6.4 km/h 14.5 km/h 82 % 0.0 mm
10:42 12.3 °C 9.3 °C 1025.3 hPa NNE 9.7 km/h 14.5 km/h 82 % 0.0 mm
10:47 12.4 °C 9.2 °C 1025.3 hPa ENE 11.3 km/h 14.5 km/h 81 % 0.0 mm
10:52 12.5 °C 9.3 °C 1025.3 hPa NE 4.8 km/h 14.5 km/h 81 % 0.0 mm
10:57 12.7 °C 9.5 °C 1025.3 hPa ENE 3.2 km/h 14.5 km/h 81 % 0.0 mm
11:02 12.8 °C 9.4 °C 1025.3 hPa NNE 6.4 km/h 14.5 km/h 80 % 0.0 mm
11:12 13.2 °C 9.4 °C 1025.3 hPa ENE 9.7 km/h 16.1 km/h 78 % 0.0 mm
11:17 13.4 °C 9.4 °C 1025.3 hPa NE 11.3 km/h 16.1 km/h 77 % 0.0 mm
11:22 13.5 °C 9.5 °C 1025.3 hPa ENE 11.3 km/h 16.1 km/h 77 % 0.0 mm
11:32 13.7 °C 9.5 °C 1025.3 hPa ENE 8.0 km/h 16.1 km/h 76 % 0.0 mm
11:37 13.8 °C 9.6 °C 1024.9 hPa ENE 9.7 km/h 16.1 km/h 76 % 0.0 mm
11:42 14.0 °C 9.6 °C 1025.3 hPa ENE 9.7 km/h 17.7 km/h 75 % 0.0 mm
11:47 14.1 °C 9.5 °C 1024.9 hPa NE 9.7 km/h 17.7 km/h 74 % 0.0 mm
11:52 14.2 °C 9.8 °C 1024.9 hPa NNE 9.7 km/h 20.9 km/h 75 % 0.0 mm
11:57 14.4 °C 9.6 °C 1024.9 hPa NE 12.9 km/h 20.9 km/h 73 % 0.0 mm
12:07 15.0 °C 10.0 °C 1024.9 hPa NE 6.4 km/h 19.3 km/h 72 % 0.0 mm
12:12 15.2 °C 10.0 °C 1024.9 hPa North 11.3 km/h 19.3 km/h 71 % 0.0 mm
12:17 15.4 °C 10.0 °C 1024.9 hPa ENE 14.5 km/h 19.3 km/h 70 % 0.0 mm
12:22 15.8 °C 9.5 °C 1024.9 hPa ENE 16.1 km/h 19.3 km/h 66 % 0.0 mm
12:27 16.1 °C 9.5 °C 1024.6 hPa East 9.7 km/h 20.9 km/h 65 % 0.0 mm
12:32 16.3 °C 9.2 °C 1024.6 hPa ENE 8.0 km/h 20.9 km/h 63 % 0.0 mm
12:42 16.5 °C 9.7 °C 1024.6 hPa NE 12.9 km/h 20.9 km/h 64 % 0.0 mm
12:47 16.4 °C 9.3 °C 1024.6 hPa ENE 17.7 km/h 19.3 km/h 63 % 0.0 mm
12:52 16.6 °C 9.0 °C 1024.6 hPa NNE 14.5 km/h 27.4 km/h 61 % 0.0 mm
12:57 16.8 °C 9.5 °C 1024.6 hPa ENE 14.5 km/h 27.4 km/h 62 % 0.0 mm
13:02 16.8 °C 9.5 °C 1024.6 hPa ENE 17.7 km/h 20.9 km/h 62 % 0.0 mm
13:07 17.1 °C 9.0 °C 1024.6 hPa NE 14.5 km/h 22.5 km/h 59 % 0.0 mm
13:12 17.0 °C 9.2 °C 1024.6 hPa ENE 12.9 km/h 27.4 km/h 60 % 0.0 mm
13:17 17.2 °C 9.6 °C 1024.6 hPa NE 19.3 km/h 27.4 km/h 61 % 0.0 mm
13:22 17.1 °C 9.8 °C 1024.6 hPa NE 11.3 km/h 27.4 km/h 62 % 0.0 mm
13:27 17.3 °C 9.5 °C 1024.3 hPa NE 6.4 km/h 25.7 km/h 60 % 0.0 mm
13:32 17.1 °C 9.5 °C 1024.3 hPa NE 19.3 km/h 25.7 km/h 61 % 0.0 mm
13:42 17.2 °C 9.9 °C 1024.3 hPa NNE 11.3 km/h 27.4 km/h 62 % 0.0 mm
13:47 17.3 °C 9.7 °C 1024.3 hPa ENE 8.0 km/h 27.4 km/h 61 % 0.0 mm
13:52 17.4 °C 9.8 °C 1024.3 hPa NE 25.7 km/h 27.4 km/h 61 % 0.0 mm
13:57 17.4 °C 9.6 °C 1024.3 hPa NE 11.3 km/h 25.7 km/h 60 % 0.0 mm
14:02 17.4 °C 9.3 °C 1024.3 hPa NNE 9.7 km/h 25.7 km/h 59 % 0.0 mm
14:12 18.0 °C 9.6 °C 1024.3 hPa NE 12.9 km/h 24.1 km/h 58 % 0.0 mm
14:17 17.9 °C 9.5 °C 1024.3 hPa NE 6.4 km/h 22.5 km/h 58 % 0.0 mm
14:22 17.9 °C 9.5 °C 1024.3 hPa NNE 12.9 km/h 22.5 km/h 58 % 0.0 mm
14:27 17.9 °C 9.5 °C 1023.9 hPa NNE 12.9 km/h 24.1 km/h 58 % 0.0 mm
14:32 18.2 °C 9.8 °C 1023.9 hPa ENE 12.9 km/h 24.1 km/h 58 % 0.0 mm
14:37 18.1 °C 9.7 °C 1023.9 hPa NNE 19.3 km/h 24.1 km/h 58 % 0.0 mm
14:42 18.0 °C 9.9 °C 1023.9 hPa WNW 6.4 km/h 25.7 km/h 59 % 0.0 mm
14:47 18.1 °C 10.0 °C 1023.9 hPa ENE 19.3 km/h 25.7 km/h 59 % 0.0 mm
14:57 18.3 °C 9.9 °C 1023.6 hPa ENE 9.7 km/h 24.1 km/h 58 % 0.0 mm
15:02 18.3 °C 10.1 °C 1023.6 hPa East 12.9 km/h 24.1 km/h 59 % 0.0 mm
15:07 18.4 °C 10.0 °C 1023.6 hPa ENE 9.7 km/h 27.4 km/h 58 % 0.0 mm
15:12 18.6 °C 10.2 °C 1023.6 hPa NE 6.4 km/h 27.4 km/h 58 % 0.0 mm
15:17 18.7 °C 10.0 °C 1023.6 hPa NE 16.1 km/h 27.4 km/h 57 % 0.0 mm
15:27 18.8 °C 10.1 °C 1023.6 hPa ENE 11.3 km/h 22.5 km/h 57 % 0.0 mm
15:32 18.8 °C 10.1 °C 1023.6 hPa ENE 16.1 km/h 22.5 km/h 57 % 0.0 mm
15:37 18.7 °C 10.0 °C 1023.6 hPa East 11.3 km/h 24.1 km/h 57 % 0.0 mm
15:42 18.7 °C 10.3 °C 1023.6 hPa East 8.0 km/h 24.1 km/h 58 % 0.0 mm
15:47 18.8 °C 10.1 °C 1023.6 hPa ENE 19.3 km/h 24.1 km/h 57 % 0.0 mm
15:57 19.0 °C 10.0 °C 1023.6 hPa NNE 14.5 km/h 29.0 km/h 56 % 0.0 mm
16:02 19.0 °C 10.3 °C 1023.2 hPa NE 8.0 km/h 29.0 km/h 57 % 0.0 mm
16:12 18.9 °C 9.9 °C 1023.2 hPa ENE 16.1 km/h 24.1 km/h 56 % 0.0 mm
16:17 19.1 °C 9.8 °C 1023.2 hPa ESE 6.4 km/h 24.1 km/h 55 % 0.0 mm
16:22 19.1 °C 9.6 °C 1023.2 hPa East 12.9 km/h 24.1 km/h 54 % 0.0 mm
16:27 18.9 °C 9.4 °C 1023.2 hPa ENE 14.5 km/h 29.0 km/h 54 % 0.0 mm
16:32 19.0 °C 9.8 °C 1023.2 hPa NE 9.7 km/h 29.0 km/h 55 % 0.0 mm
16:37 19.1 °C 9.8 °C 1023.2 hPa ENE 17.7 km/h 29.0 km/h 55 % 0.0 mm
16:42 19.2 °C 9.7 °C 1023.2 hPa NE 12.9 km/h 29.0 km/h 54 % 0.0 mm
16:47 19.2 °C 9.4 °C 1023.2 hPa ENE 14.5 km/h 20.9 km/h 53 % 0.0 mm
16:52 19.2 °C 9.7 °C 1023.2 hPa NE 14.5 km/h 27.4 km/h 54 % 0.0 mm
16:57 19.1 °C 9.6 °C 1023.2 hPa East 11.3 km/h 27.4 km/h 54 % 0.0 mm
17:02 19.1 °C 9.6 °C 1023.2 hPa NE 25.7 km/h 25.7 km/h 54 % 0.0 mm
17:07 18.9 °C 9.9 °C 1023.2 hPa ENE 8.0 km/h 25.7 km/h 56 % 0.0 mm
17:12 19.0 °C 10.3 °C 1023.2 hPa NNE 19.3 km/h 25.7 km/h 57 % 0.0 mm
17:17 18.8 °C 10.1 °C 1023.2 hPa NNE 14.5 km/h 25.7 km/h 57 % 0.0 mm
17:22 18.8 °C 9.6 °C 1023.2 hPa ENE 11.3 km/h 27.4 km/h 55 % 0.0 mm
17:27 18.8 °C 10.1 °C 1023.2 hPa East 9.7 km/h 27.4 km/h 57 % 0.0 mm
17:32 18.8 °C 9.6 °C 1023.2 hPa ENE 16.1 km/h 27.4 km/h 55 % 0.0 mm
17:37 18.8 °C 9.8 °C 1022.9 hPa NE 19.3 km/h 25.7 km/h 56 % 0.0 mm
17:42 18.7 °C 9.7 °C 1022.9 hPa ENE 14.5 km/h 25.7 km/h 56 % 0.0 mm
17:47 18.7 °C 9.5 °C 1023.2 hPa East 9.7 km/h 20.9 km/h 55 % 0.0 mm
17:52 18.6 °C 9.4 °C 1023.2 hPa NE 11.3 km/h 24.1 km/h 55 % 0.0 mm
17:57 18.6 °C 9.4 °C 1023.2 hPa NE 9.7 km/h 24.1 km/h 55 % 0.0 mm
18:02 18.5 °C 9.0 °C 1023.2 hPa ENE 16.1 km/h 24.1 km/h 54 % 0.0 mm
18:07 18.3 °C 8.8 °C 1023.2 hPa NE 11.3 km/h 25.7 km/h 54 % 0.0 mm
18:12 18.1 °C 8.6 °C 1023.2 hPa NNE 11.3 km/h 25.7 km/h 54 % 0.0 mm
18:17 18.1 °C 8.6 °C 1023.2 hPa ENE 14.5 km/h 20.9 km/h 54 % 0.0 mm
18:22 17.9 °C 8.7 °C 1023.2 hPa NE 12.9 km/h 22.5 km/h 55 % 0.0 mm
18:27 17.7 °C 8.5 °C 1023.2 hPa ENE 8.0 km/h 22.5 km/h 55 % 0.0 mm
18:32 17.5 °C 8.6 °C 1023.2 hPa NE 9.7 km/h 20.9 km/h 56 % 0.0 mm
18:42 17.1 °C 8.5 °C 1023.2 hPa NE 8.0 km/h 20.9 km/h 57 % 0.0 mm
18:47 16.9 °C 8.3 °C 1023.2 hPa East 12.9 km/h 17.7 km/h 57 % 0.0 mm
18:52 16.8 °C 8.2 °C 1023.2 hPa ENE 8.0 km/h 14.5 km/h 57 % 0.0 mm
18:57 16.7 °C 8.4 °C 1023.2 hPa NNE 6.4 km/h 14.5 km/h 58 % 0.0 mm
19:02 16.4 °C 8.4 °C 1023.6 hPa NE 4.8 km/h 14.5 km/h 59 % 0.0 mm
19:07 16.3 °C 8.5 °C 1023.6 hPa NE 1.6 km/h 12.9 km/h 60 % 0.0 mm
19:12 16.1 °C 8.6 °C 1023.2 hPa NE 4.8 km/h 11.3 km/h 61 % 0.0 mm
19:17 15.9 °C 9.1 °C 1023.6 hPa NE 8.0 km/h 11.3 km/h 64 % 0.0 mm
19:22 15.9 °C 9.3 °C 1023.6 hPa NE 9.7 km/h 11.3 km/h 65 % 0.0 mm
19:32 15.4 °C 9.5 °C 1023.6 hPa NE 8.0 km/h 11.3 km/h 68 % 0.0 mm
19:37 15.3 °C 9.6 °C 1023.6 hPa NE 4.8 km/h 11.3 km/h 69 % 0.0 mm
19:42 15.2 °C 9.8 °C 1023.6 hPa NE 6.4 km/h 9.7 km/h 70 % 0.0 mm
19:47 15.2 °C 9.8 °C 1023.6 hPa NNE 6.4 km/h 11.3 km/h 70 % 0.0 mm
19:52 15.1 °C 9.7 °C 1023.6 hPa NE 3.2 km/h 11.3 km/h 70 % 0.0 mm
19:57 15.0 °C 9.6 °C 1023.6 hPa NE 9.7 km/h 11.3 km/h 70 % 0.0 mm
20:02 14.8 °C 9.6 °C 1023.6 hPa NNE 6.4 km/h 12.9 km/h 71 % 0.0 mm
20:07 14.7 °C 9.5 °C 1023.6 hPa ENE 1.6 km/h 12.9 km/h 71 % 0.0 mm
20:12 14.6 °C 9.4 °C 1023.6 hPa NE 8.0 km/h 12.9 km/h 71 % 0.0 mm
20:17 14.5 °C 9.3 °C 1023.6 hPa NE 9.7 km/h 12.9 km/h 71 % 0.0 mm
20:22 14.4 °C 9.2 °C 1023.6 hPa NNE 6.4 km/h 14.5 km/h 71 % 0.0 mm
20:27 14.3 °C 9.1 °C 1023.6 hPa NE 8.0 km/h 14.5 km/h 71 % 0.0 mm
20:32 14.3 °C 9.1 °C 1023.6 hPa NE 9.7 km/h 14.5 km/h 71 % 0.0 mm
20:37 14.2 °C 9.0 °C 1023.6 hPa NE 8.0 km/h 14.5 km/h 71 % 0.0 mm
20:42 14.1 °C 8.9 °C 1023.6 hPa NNE 8.0 km/h 14.5 km/h 71 % 0.0 mm
20:47 14.1 °C 8.9 °C 1023.6 hPa NNE 9.7 km/h 12.9 km/h 71 % 0.0 mm
20:52 14.3 °C 8.9 °C 1023.6 hPa NNE 11.3 km/h 12.9 km/h 70 % 0.0 mm
20:57 14.3 °C 8.9 °C 1023.6 hPa NE 6.4 km/h 12.9 km/h 70 % 0.0 mm
21:02 14.3 °C 8.9 °C 1023.9 hPa NNW 8.0 km/h 14.5 km/h 70 % 0.0 mm
21:12 14.2 °C 8.8 °C 1023.6 hPa NE 8.0 km/h 16.1 km/h 70 % 0.0 mm
21:17 14.2 °C 8.8 °C 1023.6 hPa NE 8.0 km/h 16.1 km/h 70 % 0.0 mm
21:22 14.1 °C 8.7 °C 1023.6 hPa NE 9.7 km/h 16.1 km/h 70 % 0.0 mm
21:27 14.1 °C 8.9 °C 1023.6 hPa North 9.7 km/h 16.1 km/h 71 % 0.0 mm
21:32 14.1 °C 8.9 °C 1023.6 hPa NE 8.0 km/h 16.1 km/h 71 % 0.0 mm
21:37 14.0 °C 8.8 °C 1023.6 hPa NE 8.0 km/h 12.9 km/h 71 % 0.0 mm
21:47 13.8 °C 8.8 °C 1023.6 hPa NE 4.8 km/h 12.9 km/h 72 % 0.0 mm
21:52 13.6 °C 8.9 °C 1023.6 hPa ENE 8.0 km/h 12.9 km/h 73 % 0.0 mm
21:57 13.5 °C 8.8 °C 1023.6 hPa NE 9.7 km/h 12.9 km/h 73 % 0.0 mm
22:02 13.4 °C 8.9 °C 1023.6 hPa NE 8.0 km/h 16.1 km/h 74 % 0.0 mm
22:07 13.3 °C 8.8 °C 1023.6 hPa NE 6.4 km/h 16.1 km/h 74 % 0.0 mm
22:12 13.2 °C 8.9 °C 1023.6 hPa NE 9.7 km/h 17.7 km/h 75 % 0.0 mm
22:17 13.1 °C 8.8 °C 1023.6 hPa NE 8.0 km/h 17.7 km/h 75 % 0.0 mm
22:22 13.0 °C 8.9 °C 1023.6 hPa NE 9.7 km/h 17.7 km/h 76 % 0.0 mm
22:27 13.0 °C 8.9 °C 1023.6 hPa NNE 12.9 km/h 16.1 km/h 76 % 0.0 mm
22:32 12.9 °C 8.8 °C 1023.2 hPa NE 14.5 km/h 17.7 km/h 76 % 0.0 mm
22:37 12.9 °C 8.8 °C 1023.6 hPa NNE 14.5 km/h 17.7 km/h 76 % 0.0 mm
22:42 12.8 °C 8.9 °C 1023.6 hPa NNE 12.9 km/h 17.7 km/h 77 % 0.0 mm
22:47 12.8 °C 8.9 °C 1023.6 hPa NNE 9.7 km/h 17.7 km/h 77 % 0.0 mm
22:52 12.7 °C 8.8 °C 1023.6 hPa NE 9.7 km/h 16.1 km/h 77 % 0.0 mm
22:57 12.7 °C 9.0 °C 1023.2 hPa NE 8.0 km/h 16.1 km/h 78 % 0.0 mm
23:02 12.6 °C 8.9 °C 1023.6 hPa NE 12.9 km/h 19.3 km/h 78 % 0.0 mm
23:07 12.5 °C 8.8 °C 1023.6 hPa NE 11.3 km/h 19.3 km/h 78 % 0.0 mm
23:17 12.4 °C 8.9 °C 1023.6 hPa NNE 8.0 km/h 17.7 km/h 79 % 0.0 mm
23:22 12.3 °C 8.9 °C 1023.6 hPa NE 6.4 km/h 17.7 km/h 80 % 0.0 mm
23:27 12.2 °C 8.9 °C 1023.6 hPa NNE 11.3 km/h 14.5 km/h 80 % 0.0 mm
23:32 12.2 °C 8.9 °C 1023.6 hPa North 11.3 km/h 16.1 km/h 80 % 0.0 mm
23:42 12.1 °C 8.8 °C 1023.2 hPa NE 12.9 km/h 17.7 km/h 80 % 0.0 mm
23:47 12.1 °C 8.9 °C 1023.2 hPa NE 8.0 km/h 17.7 km/h 81 % 0.0 mm
23:57 11.9 °C 8.7 °C 1023.2 hPa NNE 6.4 km/h 17.7 km/h 81 % 0.0 mm
Meteo18
Compliments of Weather Underground - 4 mb

Script developed by  Jim McMurry - jmcmurry@mwt.net Adapted for the template by  Wim van der Kuil - Leuven-Template.eu

You find our weather info also at:

European Weather Network

Weather Underground

Equipment we use:

Weather-station
Davis Vue

Weather-program
Meteohub

Weather-server
Raspberry PI 2 B+

Provider
1 and 1

Davis Vue

Meteohub

Raspberry PI 2 B+

1 and 1